Time;durP1;ratioP1;P1;durP2;ratioP2;P2;SDS_P1;SDS_P2;PMS_P1;PMS_P2;Temp;Humidity;BMP_temperature;BMP_pressure;BME280_temperature;BME280_humidity;BME280_pressure;Samples;Min_cycle;Max_cycle;Signal;HPM_P1;HPM_P2
2021/08/11 00:00:11;;;;;;;8.10;6.87;;;;;;;15.99;100.00;99318.71;1708157;83;20909;-64
2021/08/11 00:02:39;;;;;;;7.95;6.67;;;;;;;15.92;100.00;99309.36;1707927;84;21267;-64
2021/08/11 00:05:07;;;;;;;9.70;7.60;;;;;;;15.89;100.00;99312.11;1708114;83;20952;-64
2021/08/11 00:07:33;;;;;;;13.70;7.72;;;;;;;15.84;100.00;99313.55;1708313;83;25573;-65
2021/08/11 00:10:00;;;;;;;10.05;6.78;;;;;;;15.83;100.00;99307.89;1708058;84;20893;-64
2021/08/11 00:12:26;;;;;;;10.15;7.08;;;;;;;15.84;100.00;99306.78;1709036;83;20908;-63
2021/08/11 00:14:53;;;;;;;8.50;6.95;;;;;;;15.82;100.00;99311.12;1708194;84;21123;-64
2021/08/11 00:17:22;;;;;;;7.60;6.85;;;;;;;15.75;100.00;99308.01;1708718;83;25207;-63
2021/08/11 00:19:50;;;;;;;13.55;6.40;;;;;;;15.69;100.00;99311.05;1708063;83;20905;-63
2021/08/11 00:22:18;;;;;;;8.25;6.50;;;;;;;15.64;100.00;99301.90;1708232;83;20889;-63
2021/08/11 00:24:45;;;;;;;8.30;6.30;;;;;;;15.59;100.00;99303.33;1708790;83;21007;-62
2021/08/11 00:27:12;;;;;;;7.37;6.50;;;;;;;15.58;100.00;99307.14;1708917;83;21114;-64
2021/08/11 00:29:38;;;;;;;8.08;6.72;;;;;;;15.56;100.00;99293.66;1706721;83;20877;-64
2021/08/11 00:32:06;;;;;;;8.85;7.20;;;;;;;15.49;100.00;99302.68;1708670;83;20957;-63
2021/08/11 00:34:33;;;;;;;8.60;7.70;;;;;;;15.42;100.00;99300.33;1708524;83;20932;-65
2021/08/11 00:37:01;;;;;;;11.70;7.58;;;;;;;15.38;100.00;99305.50;1708466;83;20889;-63
2021/08/11 00:39:30;;;;;;;8.75;7.78;;;;;;;15.31;100.00;99300.20;1708064;82;21725;-63
2021/08/11 00:41:56;;;;;;;11.70;7.80;;;;;;;15.28;100.00;99285.92;1708736;83;20905;-62
2021/08/11 00:44:23;;;;;;;8.55;7.55;;;;;;;15.25;100.00;99283.25;1707796;83;20988;-63
2021/08/11 00:46:51;;;;;;;15.90;7.87;;;;;;;15.14;100.00;99277.71;1708742;83;21332;-63
2021/08/11 00:49:18;;;;;;;9.73;7.65;;;;;;;15.08;100.00;99278.89;1708135;83;20905;-63
2021/08/11 00:51:46;;;;;;;9.70;8.10;;;;;;;15.01;100.00;99277.33;1708431;83;21094;-63
2021/08/11 00:54:13;;;;;;;11.10;8.33;;;;;;;14.99;100.00;99277.36;1707963;82;20897;-64
2021/08/11 00:56:50;;;;;;;10.40;8.03;;;;;;;15.03;100.00;99266.23;1708428;83;21309;-64
2021/08/11 00:59:17;;;;;;;9.25;7.95;;;;;;;15.06;100.00;99267.00;1708252;83;20929;-64
2021/08/11 01:01:46;;;;;;;;;;;;;;;15.03;100.00;99270.30;1721003;81;21430;-63
2021/08/11 01:04:12;;;;;;;7.20;6.50;;;;;;;15.04;100.00;99267.84;1710569;83;20991;-62
2021/08/11 01:06:40;;;;;;;10.82;7.80;;;;;;;15.02;100.00;99264.64;1708223;84;20979;-63
2021/08/11 01:09:08;;;;;;;10.60;8.58;;;;;;;14.93;100.00;99263.67;1708047;84;21084;-63
2021/08/11 01:11:38;;;;;;;10.45;8.35;;;;;;;14.87;100.00;99268.86;1663608;84;20981;-63
2021/08/11 01:14:06;;;;;;;10.88;8.73;;;;;;;14.79;100.00;99261.66;1708313;84;20866;-64
2021/08/11 01:16:33;;;;;;;11.25;9.20;;;;;;;14.71;100.00;99261.50;1686503;84;21182;-64
2021/08/11 01:18:59;;;;;;;10.43;8.70;;;;;;;14.67;100.00;99263.16;1708197;83;21070;-63
2021/08/11 01:21:33;;;;;;;10.58;8.13;;;;;;;14.61;100.00;99262.42;1708143;84;20948;-63
2021/08/11 01:24:28;;;;;;;12.58;8.85;;;;;;;14.57;100.00;99265.43;1708217;84;20857;-62
2021/08/11 01:27:36;;;;;;;11.73;9.43;;;;;;;14.51;100.00;99263.30;1707599;83;21048;-64
2021/08/11 01:30:21;;;;;;;16.23;9.43;;;;;;;14.42;100.00;99258.27;1708404;84;21727;-64
2021/08/11 01:33:00;;;;;;;10.98;9.43;;;;;;;14.40;100.00;99259.64;1708273;83;20846;-63
2021/08/11 01:35:40;;;;;;;12.68;9.80;;;;;;;14.33;100.00;99256.75;1708212;83;20850;-63
2021/08/11 01:38:12;;;;;;;11.55;9.65;;;;;;;14.23;100.00;99260.08;1708199;83;21383;-64
2021/08/11 01:40:39;;;;;;;11.45;10.30;;;;;;;14.18;100.00;99262.28;1686417;84;20951;-63
2021/08/11 01:43:06;;;;;;;15.78;9.50;;;;;;;14.13;100.00;99260.98;1708034;83;21006;-64
2021/08/11 01:45:42;;;;;;;12.68;9.50;;;;;;;14.07;100.00;99260.23;1708535;83;20941;-64
2021/08/11 01:48:17;;;;;;;10.45;9.35;;;;;;;14.04;100.00;99255.95;1707091;83;20959;-65
2021/08/11 01:50:45;;;;;;;12.47;10.40;;;;;;;13.97;100.00;99255.48;1707076;83;21439;-63
2021/08/11 01:53:21;;;;;;;13.08;10.43;;;;;;;13.91;100.00;99256.88;1708085;83;20956;-65
2021/08/11 01:55:56;;;;;;;11.10;9.18;;;;;;;13.96;100.00;99261.39;1708263;83;21078;-66
2021/08/11 01:58:27;;;;;;;11.83;9.10;;;;;;;14.03;100.00;99263.77;1707273;83;21515;-65
2021/08/11 02:00:56;;;;;;;11.88;9.90;;;;;;;14.02;100.00;99266.22;1708199;84;20888;-65
2021/08/11 02:03:23;;;;;;;10.78;9.30;;;;;;;14.01;100.00;99266.74;1708134;84;20985;-65
2021/08/11 02:05:50;;;;;;;11.12;8.85;;;;;;;14.02;100.00;99275.67;1708041;84;20885;-65
2021/08/11 02:08:17;;;;;;;12.43;8.38;;;;;;;14.03;100.00;99275.37;1708247;84;21109;-65
2021/08/11 02:10:48;;;;;;;9.85;8.90;;;;;;;14.09;100.00;99277.50;1708105;83;20897;-65
2021/08/11 02:13:17;;;;;;;9.68;8.75;;;;;;;14.12;100.00;99280.97;1707939;84;20928;-65
2021/08/11 02:15:49;;;;;;;11.55;9.28;;;;;;;14.05;100.00;99284.54;1707979;83;20992;-65
2021/08/11 02:18:19;;;;;;;12.68;9.88;;;;;;;13.98;100.00;99282.70;1686608;84;20885;-65
2021/08/11 02:20:46;;;;;;;10.40;8.73;;;;;;;14.00;100.00;99289.98;1708184;84;21474;-65
2021/08/11 02:23:14;;;;;;;9.48;8.45;;;;;;;14.01;100.00;99288.33;1708164;82;20928;-65
2021/08/11 02:25:58;;;;;;;10.10;9.05;;;;;;;14.04;100.00;99289.69;1707910;84;20936;-64
2021/08/11 02:28:37;;;;;;;12.82;8.83;;;;;;;14.08;100.00;99289.36;1685876;84;20893;-65
2021/08/11 02:31:07;;;;;;;;;;;;;;;14.07;100.00;99286.42;1710704;82;20877;-65
2021/08/11 02:33:54;;;;;;;10.20;9.18;;;;;;;14.00;100.00;99283.23;1676180;85;21084;-65
2021/08/11 02:36:29;;;;;;;10.65;8.40;;;;;;;13.94;100.00;99285.18;1661351;84;20884;-65
2021/08/11 02:39:05;;;;;;;8.48;7.60;;;;;;;13.90;100.00;99288.97;1659306;86;21455;-64
2021/08/11 02:41:38;;;;;;;10.82;8.63;;;;;;;13.89;100.00;99297.33;1659159;85;21316;-65
2021/08/11 02:44:15;;;;;;;13.78;9.33;;;;;;;13.92;100.00;99294.89;1661237;86;20873;-65
2021/08/11 02:46:42;;;;;;;10.68;8.35;;;;;;;13.91;100.00;99285.20;1661118;86;21450;-65
2021/08/11 02:49:13;;;;;;;19.60;9.87;;;;;;;13.92;100.00;99289.50;1661099;84;20925;-65
2021/08/11 02:51:40;;;;;;;10.98;9.13;;;;;;;13.92;100.00;99296.24;1659410;85;21388;-65
2021/08/11 02:54:11;;;;;;;10.82;9.03;;;;;;;13.88;100.00;99284.95;1661107;86;20897;-64
2021/08/11 02:56:44;;;;;;;10.65;9.23;;;;;;;13.86;100.00;99293.30;1658868;86;20876;-65
2021/08/11 02:59:13;;;;;;;11.40;8.73;;;;;;;13.85;100.00;99291.71;1658953;86;21074;-64
2021/08/11 03:01:41;;;;;;;11.75;9.25;;;;;;;13.91;100.00;99292.47;1658892;86;20873;-64
2021/08/11 03:04:08;;;;;;;10.68;9.33;;;;;;;13.91;100.00;99293.81;1659161;86;20905;-64
2021/08/11 03:06:35;;;;;;;9.90;8.90;;;;;;;13.92;100.00;99294.09;1658719;86;20972;-64
2021/08/11 03:09:02;;;;;;;11.93;9.70;;;;;;;13.93;100.00;99296.49;1659090;86;20880;-64
2021/08/11 03:11:30;;;;;;;10.35;9.30;;;;;;;13.90;100.00;99300.31;1659011;86;21222;-65
2021/08/11 03:13:57;;;;;;;14.33;9.95;;;;;;;13.87;100.00;99296.83;1648009;86;20928;-64
2021/08/11 03:16:23;;;;;;;13.62;9.93;;;;;;;13.86;100.00;99293.86;1658944;85;21028;-64
2021/08/11 03:18:51;;;;;;;10.78;9.55;;;;;;;13.87;100.00;99288.74;1652631;85;21400;-64
2021/08/11 03:21:19;;;;;;;11.43;9.70;;;;;;;13.88;100.00;99291.14;1718567;83;20908;-65
2021/08/11 03:23:46;;;;;;;13.90;8.98;;;;;;;13.92;100.00;99296.80;1718599;83;21847;-65
2021/08/11 03:26:15;;;;;;;13.58;10.08;;;;;;;13.97;100.00;99298.10;1712997;83;20941;-64
2021/08/11 03:28:42;;;;;;;14.15;10.35;;;;;;;14.02;100.00;99295.91;1708155;83;21469;-64
2021/08/11 03:31:09;;;;;;;23.07;15.70;;;;;;;14.11;100.00;99296.89;1708070;84;21362;-63
2021/08/11 03:33:38;;;;;;;56.20;33.85;;;;;;;14.22;100.00;99302.47;1708218;83;20873;-64
2021/08/11 03:36:05;;;;;;;34.45;20.65;;;;;;;14.28;100.00;99305.92;1708256;84;21515;-63
2021/08/11 03:38:34;;;;;;;14.90;11.33;;;;;;;14.34;100.00;99302.09;1718977;82;20936;-64
2021/08/11 03:41:00;;;;;;;13.55;8.75;;;;;;;14.43;100.00;99298.22;1718532;82;20925;-63
2021/08/11 03:43:27;;;;;;;13.58;9.00;;;;;;;14.55;100.00;99296.79;1708538;83;20928;-66
2021/08/11 03:45:56;;;;;;;10.40;8.38;;;;;;;14.71;100.00;99301.47;1708211;83;20897;-66
2021/08/11 03:48:23;;;;;;;12.13;9.00;;;;;;;14.86;100.00;99297.79;1708162;83;21131;-66
2021/08/11 03:50:51;;;;;;;8.45;7.62;;;;;;;15.03;100.00;99301.92;1708081;83;20956;-65
2021/08/11 03:53:18;;;;;;;14.10;9.20;;;;;;;15.17;100.00;99301.48;1708390;84;21324;-65
2021/08/11 03:55:45;;;;;;;12.37;8.08;;;;;;;15.31;100.00;99307.79;1708038;84;20940;-65
2021/08/11 03:58:12;;;;;;;11.55;7.70;;;;;;;15.46;100.00;99310.00;1708142;83;20877;-64
2021/08/11 04:00:38;;;;;;;14.85;8.25;;;;;;;15.57;100.00;99306.87;1708227;84;21092;-64
2021/08/11 04:03:05;;;;;;;12.37;8.65;;;;;;;15.71;100.00;99308.33;1708124;83;21439;-66
2021/08/11 04:05:31;;;;;;;12.55;8.15;;;;;;;15.87;100.00;99311.59;1708177;84;21423;-64
2021/08/11 04:07:57;;;;;;;13.88;8.70;;;;;;;16.00;100.00;99308.71;1708301;84;21379;-64
2021/08/11 04:10:25;;;;;;;12.03;8.05;;;;;;;16.12;100.00;99309.05;1707967;83;20895;-65
2021/08/11 04:12:51;;;;;;;11.10;8.88;;;;;;;16.21;100.00;99299.13;1708278;83;21827;-66
2021/08/11 04:15:17;;;;;;;20.23;10.85;;;;;;;16.33;100.00;99306.78;1707923;84;20917;-65
2021/08/11 04:17:44;;;;;;;10.18;8.03;;;;;;;16.45;100.00;99303.59;1708317;84;21446;-66
2021/08/11 04:20:12;;;;;;;10.05;8.20;;;;;;;16.58;100.00;99302.80;1708115;84;21384;-65
2021/08/11 04:22:39;;;;;;;13.78;8.28;;;;;;;16.72;100.00;99306.33;1708566;84;20841;-65
2021/08/11 04:25:07;;;;;;;9.08;7.33;;;;;;;16.86;100.00;99302.88;1708168;84;21123;-65
2021/08/11 04:27:33;;;;;;;13.13;7.50;;;;;;;17.02;100.00;99306.06;1708084;84;20980;-64
2021/08/11 04:30:00;;;;;;;12.53;7.30;;;;;;;17.19;100.00;99303.53;1708020;83;21312;-63
2021/08/11 04:32:26;;;;;;;12.07;7.08;;;;;;;17.37;100.00;99303.17;1708441;84;21048;-64
2021/08/11 04:34:52;;;;;;;20.25;7.50;;;;;;;17.54;100.00;99296.55;1707953;84;21514;-66
2021/08/11 04:37:18;;;;;;;10.65;7.37;;;;;;;17.78;100.00;99303.05;1708208;84;21098;-67
2021/08/11 04:39:45;;;;;;;10.90;6.87;;;;;;;18.02;100.00;99307.39;1707991;82;21411;-66
2021/08/11 04:42:11;;;;;;;9.63;6.70;;;;;;;18.20;100.00;99297.43;1707980;82;20838;-67
2021/08/11 04:44:37;;;;;;;10.40;6.25;;;;;;;18.35;100.00;99292.98;1708193;82;20881;-67
2021/08/11 04:47:04;;;;;;;16.52;5.87;;;;;;;18.50;100.00;99290.98;1685240;84;21505;-67
2021/08/11 04:49:30;;;;;;;8.95;7.62;;;;;;;18.63;100.00;99284.07;1708109;82;21120;-67
2021/08/11 04:51:56;;;;;;;27.87;16.27;;;;;;;18.76;100.00;99289.75;1708325;84;20925;-66
2021/08/11 04:54:23;;;;;;;45.17;29.82;;;;;;;18.87;100.00;99297.08;1708315;84;21004;-65
2021/08/11 04:56:49;;;;;;;33.98;26.62;;;;;;;19.02;100.00;99296.64;1708072;83;20936;-64
2021/08/11 04:59:15;;;;;;;26.57;20.85;;;;;;;19.16;100.00;99295.16;1708158;84;20976;-64
2021/08/11 05:01:42;;;;;;;33.80;24.80;;;;;;;19.34;100.00;99294.05;1708140;84;21112;-64
2021/08/11 05:04:08;;;;;;;29.85;22.65;;;;;;;19.62;100.00;99292.39;1707933;83;20936;-65
2021/08/11 05:06:35;;;;;;;23.00;16.55;;;;;;;19.62;100.00;99292.39;1707963;84;20932;-65
2021/08/11 05:09:01;;;;;;;17.90;15.08;;;;;;;19.74;100.00;99295.30;1708330;83;20885;-64
2021/08/11 05:11:28;;;;;;;13.48;9.25;;;;;;;19.91;100.00;99293.13;1708275;84;20913;-65
2021/08/11 05:13:54;;;;;;;6.75;6.03;;;;;;;20.17;100.00;99298.55;1708283;82;21087;-66
2021/08/11 05:16:21;;;;;;;11.80;6.20;;;;;;;20.32;100.00;99300.75;1708421;83;20873;-66
2021/08/11 05:18:47;;;;;;;7.92;4.85;;;;;;;20.58;100.00;99302.64;1707656;83;20936;-66
2021/08/11 05:21:14;;;;;;;6.87;4.85;;;;;;;20.75;100.00;99299.05;1707823;83;20960;-66
2021/08/11 05:23:40;;;;;;;5.28;3.90;;;;;;;20.86;100.00;99302.20;1708721;83;21372;-65
2021/08/11 05:26:07;;;;;;;7.75;4.42;;;;;;;20.98;100.00;99302.30;1708430;83;21046;-66
2021/08/11 05:28:33;;;;;;;8.20;4.55;;;;;;;21.26;100.00;99294.41;1708392;83;21019;-66
2021/08/11 05:30:59;;;;;;;4.60;4.05;;;;;;;21.46;100.00;99299.71;1707942;84;20837;-66
2021/08/11 05:33:25;;;;;;;6.72;4.20;;;;;;;21.55;100.00;99290.86;1708098;83;20909;-65
2021/08/11 05:35:53;;;;;;;5.60;4.10;;;;;;;21.64;100.00;99291.38;1707217;83;20965;-65
2021/08/11 05:38:21;;;;;;;8.45;4.00;;;;;;;21.80;100.00;99293.17;1707919;84;21168;-64
2021/08/11 05:40:47;;;;;;;3.58;3.22;;;;;;;22.14;100.00;99283.59;1708933;82;20884;-66
2021/08/11 05:43:15;;;;;;;7.53;4.22;;;;;;;22.32;100.00;99282.32;1707987;83;20968;-66
2021/08/11 05:45:43;;;;;;;9.55;3.50;;;;;;;22.50;100.00;99290.33;1707357;83;20980;-66
2021/08/11 05:48:09;;;;;;;8.10;3.80;;;;;;;22.75;100.00;99289.20;1708237;83;20952;-66
2021/08/11 05:50:36;;;;;;;4.42;3.75;;;;;;;22.92;100.00;99289.54;1708232;83;21106;-66
2021/08/11 05:53:03;;;;;;;5.83;3.67;;;;;;;22.93;99.64;99288.97;1708167;83;20952;-66
2021/08/11 05:55:29;;;;;;;5.40;3.55;;;;;;;22.90;100.00;99284.39;1708232;82;20924;-67
2021/08/11 05:57:57;;;;;;;4.92;3.72;;;;;;;23.08;95.94;99284.22;1707964;82;20885;-65
2021/08/11 06:00:23;;;;;;;10.00;3.62;;;;;;;23.22;97.37;99279.73;1742465;80;21448;-64
2021/08/11 06:02:50;;;;;;;15.65;5.17;;;;;;;23.29;92.49;99278.00;1751460;82;21371;-63
2021/08/11 06:05:19;;;;;;;49.00;16.02;;;;;;;23.60;93.35;99273.03;1743137;81;20811;-63
2021/08/11 06:07:45;;;;;;;20.03;12.20;;;;;;;24.14;88.61;99265.16;1752023;82;20969;-63
2021/08/11 06:10:12;;;;;;;6.50;5.78;;;;;;;24.34;83.96;99269.38;1750545;80;21352;-62
2021/08/11 06:12:38;;;;;;;6.20;3.67;;;;;;;24.45;81.91;99264.16;1768971;80;20854;-63
2021/08/11 06:15:06;;;;;;;6.92;3.30;;;;;;;24.70;77.71;99271.69;1768697;80;21125;-65
2021/08/11 06:17:47;;;;;;;4.67;3.33;;;;;;;25.06;78.10;99269.76;1752587;80;20976;-63
2021/08/11 06:20:18;;;;;;;12.13;3.77;;;;;;;25.32;74.10;99266.45;1734065;80;20904;-63
2021/08/11 06:22:45;;;;;;;6.33;2.65;;;;;;;25.30;75.26;99269.55;1733964;81;20948;-63
2021/08/11 06:25:12;;;;;;;3.72;2.50;;;;;;;25.38;72.03;99272.69;1729822;81;21346;-64
2021/08/11 06:27:39;;;;;;;5.47;2.35;;;;;;;25.65;69.17;99260.48;1731624;81;21678;-65
2021/08/11 06:30:07;;;;;;;6.47;2.90;;;;;;;25.88;67.06;99261.94;1748019;80;20958;-67
2021/08/11 06:32:34;;;;;;;7.80;2.52;;;;;;;26.18;67.13;99260.71;1739531;80;20952;-66
2021/08/11 06:35:00;;;;;;;6.83;2.42;;;;;;;26.42;64.31;99261.52;1750385;80;21119;-67
2021/08/11 06:37:27;;;;;;;5.28;2.30;;;;;;;26.27;62.26;99273.66;1735738;82;21396;-65
2021/08/11 06:39:53;;;;;;;6.57;2.60;;;;;;;26.05;64.29;99260.09;1743494;81;21842;-66
2021/08/11 06:42:20;;;;;;;2.90;2.37;;;;;;;26.30;62.80;99272.13;1743349;82;20980;-64
2021/08/11 06:44:48;;;;;;;9.08;2.55;;;;;;;26.37;64.21;99264.00;1742644;81;20862;-65
2021/08/11 06:47:15;;;;;;;4.65;2.83;;;;;;;26.35;61.05;99263.56;1744102;82;21381;-66
2021/08/11 06:49:42;;;;;;;6.00;2.67;;;;;;;26.22;58.36;99266.30;1746996;82;21395;-65
2021/08/11 06:52:08;;;;;;;4.83;2.62;;;;;;;26.08;61.06;99259.95;1746767;82;21732;-65
2021/08/11 06:54:35;;;;;;;19.15;4.35;;;;;;;26.35;61.12;99266.91;1746655;81;21332;-66
2021/08/11 06:57:01;;;;;;;6.00;2.98;;;;;;;26.56;58.20;99269.27;1746523;82;21467;-65
2021/08/11 06:59:28;;;;;;;6.45;2.80;;;;;;;26.52;56.86;99269.95;1746483;81;20977;-65
2021/08/11 07:01:54;;;;;;;4.05;2.58;;;;;;;26.73;57.25;99272.89;1746683;82;20992;-65
2021/08/11 07:04:21;;;;;;;4.45;2.75;;;;;;;26.75;58.42;99276.63;1746745;82;21716;-65
2021/08/11 07:06:47;;;;;;;4.28;2.80;;;;;;;27.03;57.36;99278.45;1746823;81;20979;-63
2021/08/11 07:09:16;;;;;;;14.53;3.20;;;;;;;26.89;51.60;99286.49;1747004;82;20881;-65
2021/08/11 07:11:42;;;;;;;5.92;2.42;;;;;;;26.78;51.77;99280.02;1746680;81;21459;-64
2021/08/11 07:14:09;;;;;;;6.10;2.50;;;;;;;26.80;48.55;99280.44;1747027;81;20857;-64
2021/08/11 07:16:37;;;;;;;2.35;2.15;;;;;;;27.05;51.09;99276.72;1746801;82;21151;-66
2021/08/11 07:19:03;;;;;;;12.43;2.52;;;;;;;27.26;49.03;99283.13;1746575;82;20901;-64
2021/08/11 07:21:30;;;;;;;3.50;2.52;;;;;;;27.08;49.04;99279.51;1747069;82;21031;-61
2021/08/11 07:23:56;;;;;;;19.98;14.85;;;;;;;27.09;49.24;99276.95;1746686;82;20905;-62
2021/08/11 07:26:23;;;;;;;4.37;3.20;;;;;;;27.26;50.01;99283.13;1752094;81;20945;-63
2021/08/11 07:28:49;;;;;;;3.37;2.00;;;;;;;27.35;49.33;99274.01;1740871;82;21108;-63
2021/08/11 07:31:15;;;;;;;46.08;3.83;;;;;;;27.00;47.75;99280.58;1743305;81;20898;-63
2021/08/11 07:33:42;;;;;;;5.70;2.05;;;;;;;27.20;49.19;99280.50;1743463;82;20969;-63
2021/08/11 07:36:08;;;;;;;2.33;2.05;;;;;;;27.60;49.78;99281.21;1743673;82;21000;-63
2021/08/11 07:38:35;;;;;;;3.60;2.15;;;;;;;27.71;44.82;99286.28;1743772;82;20961;-62
2021/08/11 07:41:01;;;;;;;3.22;2.37;;;;;;;27.45;46.07;99282.99;1731357;81;21097;-63
2021/08/11 07:43:28;;;;;;;12.30;2.50;;;;;;;27.36;47.60;99286.05;1731635;82;20866;-64
2021/08/11 07:45:54;;;;;;;6.40;2.45;;;;;;;27.43;48.71;99283.95;1731359;82;20974;-68
2021/08/11 07:48:20;;;;;;;2.98;1.87;;;;;;;28.05;48.22;99284.11;1731189;81;20969;-68
2021/08/11 07:50:47;;;;;;;5.22;2.52;;;;;;;28.27;46.83;99273.52;1731160;83;20992;-65
2021/08/11 07:53:13;;;;;;;3.35;2.17;;;;;;;28.31;47.45;99277.09;1735480;82;21049;-64
2021/08/11 07:55:40;;;;;;;7.58;2.50;;;;;;;28.34;46.93;99275.53;1734334;81;20897;-66
2021/08/11 07:58:07;;;;;;;3.08;2.25;;;;;;;28.35;45.90;99282.06;1741109;82;20866;-65
2021/08/11 08:00:35;;;;;;;7.72;2.42;;;;;;;28.39;47.71;99265.52;1776574;80;21447;-63
2021/08/11 08:03:01;;;;;;;7.80;2.20;;;;;;;28.34;46.31;99269.42;1775541;80;20965;-63
2021/08/11 08:05:28;;;;;;;16.77;3.17;;;;;;;28.34;45.44;99260.36;1749210;80;21088;-62
2021/08/11 08:07:54;;;;;;;11.00;2.50;;;;;;;28.34;46.93;99261.73;1734579;80;21668;-63
2021/08/11 08:10:20;;;;;;;3.73;2.20;;;;;;;28.88;46.24;99256.08;1743855;81;20858;-61
2021/08/11 08:12:48;;;;;;;8.83;2.58;;;;;;;29.28;43.94;99267.61;1743466;81;21491;-62
2021/08/11 08:15:15;;;;;;;32.23;4.00;;;;;;;28.94;43.10;99264.22;1743122;82;20986;-65
2021/08/11 08:17:42;;;;;;;7.10;2.55;;;;;;;28.82;45.06;99268.08;1743801;81;21377;-63
2021/08/11 08:20:10;;;;;;;5.17;2.40;;;;;;;28.97;44.47;99263.45;1743788;82;20906;-63
2021/08/11 08:22:37;;;;;;;5.10;2.30;;;;;;;28.58;44.01;99258.42;1743887;82;20874;-64
2021/08/11 08:25:05;;;;;;;5.62;2.02;;;;;;;28.46;44.68;99256.55;1743731;82;21464;-66
2021/08/11 08:27:31;;;;;;;3.65;2.20;;;;;;;28.45;45.43;99258.53;1743790;82;20993;-67
2021/08/11 08:29:58;;;;;;;3.75;2.10;;;;;;;28.39;47.56;99255.86;1743750;82;21161;-64
2021/08/11 08:32:30;;;;;;;4.27;2.27;;;;;;;28.77;45.08;99257.98;1721740;80;21395;-65
2021/08/11 08:34:56;;;;;;;12.93;2.10;;;;;;;28.28;43.75;99253.02;1731240;83;21415;-65
2021/08/11 08:37:37;;;;;;;5.05;2.67;;;;;;;28.33;45.07;99252.67;1731277;83;21036;-65
2021/08/11 08:40:12;;;;;;;59.73;6.33;;;;;;;28.92;44.51;99250.59;1738620;81;20920;-67
2021/08/11 08:42:40;;;;;;;3.33;2.35;;;;;;;29.12;43.39;99251.13;1741928;82;21120;-65
2021/08/11 08:45:08;;;;;;;9.40;2.62;;;;;;;29.24;41.48;99249.42;1742004;82;20949;-63
2021/08/11 08:47:37;;;;;;;3.75;2.20;;;;;;;29.32;41.96;99251.63;1741817;82;21003;-64
2021/08/11 08:50:06;;;;;;;2.92;2.25;;;;;;;29.31;41.71;99244.53;1741967;82;21011;-65
2021/08/11 08:52:32;;;;;;;4.22;2.33;;;;;;;29.37;43.00;99244.34;1741627;82;20980;-63
2021/08/11 08:54:59;;;;;;;3.60;2.40;;;;;;;28.88;42.38;99249.77;1742207;82;21210;-64
2021/08/11 08:57:27;;;;;;;5.10;2.45;;;;;;;28.95;43.21;99242.91;1741843;82;21443;-64
2021/08/11 08:59:53;;;;;;;3.87;1.98;;;;;;;28.74;43.25;99249.88;1741708;81;21479;-63
2021/08/11 09:02:20;;;;;;;2.90;2.35;;;;;;;28.63;44.06;99253.14;1721435;81;20916;-62
2021/08/11 09:04:46;;;;;;;4.73;1.97;;;;;;;28.50;43.13;99247.13;1708072;82;20941;-63
2021/08/11 09:07:15;;;;;;;3.67;2.52;;;;;;;28.50;43.13;99247.13;1707853;84;21126;-64
2021/08/11 09:09:42;;;;;;;8.78;2.30;;;;;;;28.76;43.12;99242.58;1707718;83;20873;-64
2021/08/11 09:12:14;;;;;;;3.67;2.37;;;;;;;29.10;42.48;99236.91;1707505;83;20993;-64
2021/08/11 09:14:45;;;;;;;3.85;2.22;;;;;;;29.13;42.83;99239.70;1707923;83;20950;-65
2021/08/11 09:17:33;;;;;;;3.70;2.33;;;;;;;29.20;41.55;99235.60;1708761;82;20842;-65
2021/08/11 09:20:00;;;;;;;5.83;2.42;;;;;;;28.91;42.70;99235.99;1707970;83;21128;-65
2021/08/11 09:22:26;;;;;;;4.33;2.62;;;;;;;28.82;43.48;99228.03;1715384;82;20945;-64
2021/08/11 09:25:07;;;;;;;6.77;2.10;;;;;;;28.83;42.45;99226.06;1691166;83;21534;-65
2021/08/11 09:27:40;;;;;;;2.90;2.17;;;;;;;28.68;43.99;99214.13;1683701;85;21000;-66
2021/08/11 09:30:14;;;;;;;11.48;2.40;;;;;;;28.64;42.70;99221.02;1707867;83;21103;-66
2021/08/11 09:33:03;;;;;;;8.95;2.35;;;;;;;29.19;41.93;99227.09;1686529;85;21739;-67
2021/08/11 09:35:34;;;;;;;6.20;2.00;;;;;;;29.16;41.35;99219.58;1685851;85;21577;-65
2021/08/11 09:38:05;;;;;;;10.63;6.33;;;;;;;28.95;42.38;99221.59;1690982;84;20991;-64
2021/08/11 09:40:37;;;;;;;5.12;4.17;;;;;;;29.19;42.89;99216.03;1678776;84;21013;-64
2021/08/11 09:43:09;;;;;;;4.35;2.60;;;;;;;29.44;42.89;99231.94;1671238;85;21064;-65
2021/08/11 09:45:54;;;;;;;4.85;2.30;;;;;;;29.30;41.46;99231.30;1671182;85;21878;-65
2021/08/11 09:48:22;;;;;;;7.40;3.12;;;;;;;29.12;42.37;99233.17;1671199;85;21008;-64
2021/08/11 09:51:01;;;;;;;4.22;2.40;;;;;;;29.56;42.51;99229.42;1670893;84;20933;-65
2021/08/11 09:53:33;;;;;;;4.53;2.10;;;;;;;29.71;40.76;99228.31;1671365;84;21427;-64
2021/08/11 09:56:06;;;;;;;4.10;2.67;;;;;;;29.65;42.45;99216.81;1671017;85;21067;-65
2021/08/11 09:58:47;;;;;;;4.67;2.65;;;;;;;29.83;43.82;99226.56;1670877;85;21151;-66
2021/08/11 10:01:20;;;;;;;8.05;2.40;;;;;;;29.34;43.87;99222.42;1671216;85;21458;-66
2021/08/11 10:04:06;;;;;;;5.72;2.17;;;;;;;28.88;44.89;99221.55;1671030;85;21369;-68
2021/08/11 10:06:43;;;;;;;7.92;2.83;;;;;;;29.25;45.40;99220.59;1671185;85;21455;-63
2021/08/11 10:09:23;;;;;;;7.15;4.08;;;;;;;29.09;43.76;99214.02;1671242;85;21076;-64
2021/08/11 10:11:57;;;;;;;7.08;2.72;;;;;;;29.31;44.48;99210.77;1671074;85;21074;-65
2021/08/11 10:14:29;;;;;;;42.58;28.02;;;;;;;29.44;44.38;99215.35;1671258;84;20973;-65
2021/08/11 10:16:58;;;;;;;4.12;2.58;;;;;;;29.57;43.48;99205.55;1671068;85;20999;-66
2021/08/11 10:19:31;;;;;;;5.85;2.30;;;;;;;29.42;43.41;99210.23;1671111;84;20926;-66
2021/08/11 10:22:00;;;;;;;4.95;2.67;;;;;;;29.27;44.55;99212.12;1671337;85;20989;-66
2021/08/11 10:24:29;;;;;;;6.78;2.60;;;;;;;29.56;44.50;99209.47;1670954;85;21132;-66
2021/08/11 10:26:56;;;;;;;4.42;2.55;;;;;;;29.38;43.65;99216.33;1671162;84;20992;-67
2021/08/11 10:29:24;;;;;;;12.55;2.60;;;;;;;29.42;43.95;99212.18;1671210;85;21032;-66
2021/08/11 10:31:51;;;;;;;3.67;2.50;;;;;;;29.34;43.99;99208.59;1666325;85;21013;-66
2021/08/11 10:34:18;;;;;;;5.97;2.90;;;;;;;29.35;44.11;99212.16;1673330;85;20984;-65
2021/08/11 10:36:46;;;;;;;4.00;2.15;;;;;;;29.58;43.70;99213.23;1712857;83;21105;-66
2021/08/11 10:39:18;;;;;;;2.83;2.42;;;;;;;29.75;42.55;99210.36;1713031;83;20981;-66
2021/08/11 10:41:45;;;;;;;9.28;2.30;;;;;;;29.43;43.08;99207.66;1680958;83;21312;-65
2021/08/11 10:44:20;;;;;;;4.03;2.27;;;;;;;29.45;43.83;99214.19;1650307;85;21013;-67
2021/08/11 10:47:11;;;;;;;3.58;2.45;;;;;;;29.21;43.84;99197.70;1677717;85;21470;-67
2021/08/11 10:49:58;;;;;;;6.08;2.58;;;;;;;29.34;43.88;99200.91;1752748;80;21386;-66
2021/08/11 10:52:27;;;;;;;8.95;2.10;;;;;;;29.46;43.95;99201.34;1755612;80;21058;-65
2021/08/11 10:54:58;;;;;;;13.35;2.47;;;;;;;29.48;44.49;99199.58;1755244;81;21473;-66
2021/08/11 10:57:41;;;;;;;6.80;2.52;;;;;;;29.21;43.31;99201.84;1755700;81;21078;-66
2021/08/11 11:00:28;;;;;;;7.08;2.05;;;;;;;29.15;45.90;99193.70;1755279;81;20956;-65
2021/08/11 11:02:53;;;;;;;2.90;2.60;;;;;;;29.02;46.89;99192.63;1754248;81;22151;-65
2021/08/11 11:05:27;;;;;;;3.43;2.40;;;;;;;29.41;45.67;99194.02;1767660;80;21021;-63
2021/08/11 11:08:15;;;;;;;3.92;1.87;;;;;;;29.16;43.67;99185.05;1777636;79;20945;-64
2021/08/11 11:10:45;;;;;;;7.83;6.22;;;;;;;29.18;45.23;99173.61;1763400;80;20971;-66
2021/08/11 11:13:31;;;;;;;6.17;2.30;;;;;;;29.47;42.85;99196.59;1729861;80;21051;-67
2021/08/11 11:15:59;;;;;;;3.05;2.20;;;;;;;29.56;42.64;99197.03;1735147;80;21141;-65
2021/08/11 11:18:26;;;;;;;2.72;2.12;;;;;;;29.34;42.25;99185.11;1731494;80;20916;-65
2021/08/11 11:21:01;;;;;;;3.25;2.25;;;;;;;29.68;43.37;99188.41;1728192;80;21302;-65
2021/08/11 11:23:39;;;;;;;5.55;2.55;;;;;;;29.43;42.23;99184.16;1744635;82;20904;-65
2021/08/11 11:26:15;;;;;;;2.65;2.20;;;;;;;29.19;42.80;99164.91;1746157;81;21389;-66
2021/08/11 11:29:09;;;;;;;57.00;36.80;;;;;;;29.66;41.86;99180.30;1744451;82;21103;-66
2021/08/11 11:31:51;;;;;;;4.20;2.52;;;;;;;30.11;41.79;99174.64;1758291;80;20915;-65
2021/08/11 11:34:35;;;;;;;10.75;6.15;;;;;;;30.24;40.63;99165.34;1784083;80;20964;-61